Romoe Maersk — OXLC2 — position and weather

sailwx.info

Track history (hours):
 
Tides and Currents Weather Stations Pressure Air Temp Water Temp Dewpoint Dewpoint Depression Visibility Wind Speed Wind Dir Waves Ship Positions

Romoe Maersk

Last reported at 2018-Jan-29 01:42 UTC. Time now 2018-May-23 16:41 UTC.
Position N 01°22' E 103°17'.
Warning: this ship's position is months out of date.

Length 171 m; draft 11.9 m.

Type: Ship. MMSI: 220209000.

Date/timePositionNaut miles runAvg speedWind from/ knotsBaromVisibWave heightAir tempDewpointWater temp
2018-Jan-29 01:42N 01°22' E 103°17'311.1
2018-Jan-29 01:25N 01°20' E 103°19'511.1
2018-Jan-29 01:00N 01°17' E 103°22'610.7
2018-Jan-29 00:29N 01°14' E 103°27'510.8
2018-Jan-29 00:01N 01°12' E 103°31'510.5
2018-Jan-28 23:30N 01°11' E 103°37'4 8.5
2018-Jan-28 23:00N 01°11' E 103°41'4 7.8
2018-Jan-28 22:30N 01°08' E 103°44'612.8
2018-Jan-28 22:00N 01°11' E 103°49'612.6
2018-Jan-28 21:31N 01°14' E 103°55'712.5
2018-Jan-28 20:57N 01°16' E 104°02'5 7.2
2018-Jan-28 20:16N 01°19' E 104°05'2 8.8
2018-Jan-28 19:59N 01°21' E 104°03'7 7.5
2018-Jan-28 19:03N 01°24' E 103°57'1 9.3
2018-Jan-28 18:58N 01°24' E 103°56'  
2018-Jan-25 20:06N 01°20' E 104°06'0 0.0
2018-Jan-25 19:39N 01°20' E 104°06'  
Track history (hours):
 
Tides and Currents Weather Stations Pressure Air Temp Water Temp Dewpoint Dewpoint Depression Visibility Wind Speed Wind Dir Waves Ship Positions

Romoe Maersk

Last reported at 2018-Jan-29 01:42 UTC. Time now 2018-May-23 16:41 UTC.
Position N 01°22' E 103°17'.
Warning: this ship's position is months out of date.

Length 171 m; draft 11.9 m.

Type: Ship. MMSI: 220209000.

Date/timePositionNaut miles runAvg speedWind from/ knotsBaromVisibWave heightAir tempDewpointWater temp
2018-Jan-29 01:42N 01°22' E 103°17'311.1
2018-Jan-29 01:25N 01°20' E 103°19'511.1
2018-Jan-29 01:00N 01°17' E 103°22'610.7
2018-Jan-29 00:29N 01°14' E 103°27'510.8
2018-Jan-29 00:01N 01°12' E 103°31'510.5
2018-Jan-28 23:30N 01°11' E 103°37'4 8.5
2018-Jan-28 23:00N 01°11' E 103°41'4 7.8
2018-Jan-28 22:30N 01°08' E 103°44'612.8
2018-Jan-28 22:00N 01°11' E 103°49'612.6
2018-Jan-28 21:31N 01°14' E 103°55'712.5
2018-Jan-28 20:57N 01°16' E 104°02'5 7.2
2018-Jan-28 20:16N 01°19' E 104°05'2 8.8
2018-Jan-28 19:59N 01°21' E 104°03'7 7.5
2018-Jan-28 19:03N 01°24' E 103°57'1 9.3
2018-Jan-28 18:58N 01°24' E 103°56'  
2018-Jan-25 20:06N 01°20' E 104°06'0 0.0
2018-Jan-25 19:39N 01°20' E 104°06'  

Dump ship's entire track history